Seeley, CA

8:32 PM PDT en Septiembre 16, 2014 (GMT -0700)
El Centro Naval Air Facility | Change Station
CLOSE
Current Station
Aeropuerto
Location: El Centro,
Altura: -43 ft
Estaciones meteorológicas cercanas
Aviso en curso: Special Statement Aviso activo: Public Information Statement

Alt -43 ft 32.83 °N, 115.66 °W | Updated 36 minutes ago

Parcialmente nublado
Parcialmente nublado
92 ° F
Sensación térmica 94 ° F
N
7
Viento Variable Viento desde ESE

Hoy
Alta -- | Baja -- ° F
--% Posibilidad de precipitaciones
Ayer
Alta -- | Baja -- ° F
Precip. -- pul
6:27 AM 6:47 PM
Cuarto menguante, 40% visible
Presión 29.77 pul
Visibilidad 10.0 Millas
Nubes Baja 7000 ft
Baja 11000 ft
Nubes dispersas 13000 ft
Índice de calor 94 ° F
Punto de rocío 65 ° F
Humedad 41%
Precipitaciones 0.00 pul
Espesor de la nieve 0 in , 1 in , 0 in
UV 0 de una escala de 12
Polen 8.60 de una escala de 12
Ozono Buena
PM2.5 Buena
Flu Activity No disponible.
METAR KNJK 170256Z 11006KT 10SM FEW070 FEW110 SCT130 33/18 A2972 RMK AO2 SLP081 FRQ LTGIC DSNT NE CB DSNT NE T03330183 53011

More Conditions Fewer Conditions

Presión 29.77 pul
Visibilidad 10.0 Millas
Nubes Baja 7000 ft
Baja 11000 ft
Nubes dispersas 13000 ft
Índice de calor 94 ° F
Punto de rocío 65 ° F
Humedad 41%
Precipitaciones 0.00 pul
Espesor de la nieve 0 in , 1 in , 0 in
UV 0 de una escala de 12
Polen 8.60 de una escala de 12
Ozono Buena
PM2.5 Buena
Flu Activity No disponible.
METAR KNJK 170256Z 11006KT 10SM FEW070 FEW110 SCT130 33/18 A2972 RMK AO2 SLP081 FRQ LTGIC DSNT NE CB DSNT NE T03330183 53011

More Conditions Fewer Conditions

10-Day Weather Forecast

Almanac

Astronomía

Sep. 16, 2014 Salida Puesta
Hora real 6:27 AM PDT 6:47 PM PDT
Crepúsculo civil 6:02 AM PDT 7:12 PM PDT
Crepúsculo náutico 5:33 AM PDT 7:40 PM PDT
Crepúsculo astronómico 5:04 AM PDT 8:10 PM PDT
Luna Sin salida de luna 2:01 PM PDT (9/16)
Horas de luz 13h 09m
Horas de luz
12h 20m
Tomorrow will be 2m 0s shorter.
Cuarto menguante, 40% of the Moon is Illuminated
Hoy
Cuarto menguante
Sep 24
Nueva
Oct 1
Cuarto creciente
Oct 8
Luna llena
Oct 15
Cuarto menguante

Extremos de hoy

Máximos del estado Bajos del estado

Community

WunderPhotos

Upload Photos

1,753,954 ¡fotos cargadas!

Nearby

Calidad del aire

  Calidad del aire Índice AQ Contaminante
Ayer Moderada
PM2.5
Ayer Buena
OZONE
Real Buena
PM2.5
Real Buena
OZONE
Martes Buena
OZONE
Miércoles Buena
OZONE
Jueves Buena
OZONE
Viernes Buena
OZONE
Sábado Buena
OZONE
Domingo Buena
OZONE

Grosos de nieve

Estación Profundido Altura
CSS Lab 2 in 6900 ft
Leavitt Meadows 0 in 7200 ft
Summit Meadow 1 in 9122 ft
Spratt Creek 0 in 6200 ft
Leavitt Lake 0 in 9400 ft

Actividad de terremotos

Ciudad Distance Mag. Tiempo y dato
La Quinta, California 65 Millas 2.7 8:59 PM PDT
2014-09-15
San Jacinto, California 100 Millas 3.0 3:16 PM PDT
2014-09-14
Magnitud mínima muestra es 2,5.

Temperaturas de aguas costeras

Lugar Temperatura
Sin partes meteorológicos de las estaciones

Estaciones meteorológicas cercanas